createdAt,value
2023-02-15T00:02:03.341Z,22.60
2023-02-15T00:04:47.182Z,18.80
2023-02-15T00:07:19.761Z,45.60
2023-02-15T00:09:50.089Z,51.40
2023-02-15T00:12:17.573Z,44.90
2023-02-15T00:14:44.865Z,35.50
2023-02-15T00:17:12.159Z,44.10
2023-02-15T00:19:39.325Z,25.40
2023-02-15T00:22:06.487Z,16.90
2023-02-15T00:24:33.865Z,20.00
2023-02-15T00:27:00.922Z,38.80
2023-02-15T00:29:29.054Z,27.10
2023-02-15T00:31:56.302Z,13.50
2023-02-15T00:34:27.990Z,2.30
2023-02-15T00:36:57.605Z,1.00
2023-02-15T00:39:25.314Z,1.00
2023-02-15T00:41:52.229Z,1.00
2023-02-15T00:44:19.322Z,10.90
2023-02-15T00:46:46.376Z,19.30
2023-02-15T00:49:13.392Z,25.00
2023-02-15T00:51:40.578Z,26.90
2023-02-15T00:54:07.954Z,40.20
2023-02-15T00:56:34.974Z,65.00
2023-02-15T00:59:02.100Z,56.50
2023-02-15T01:01:29.177Z,76.50
2023-02-15T01:03:56.355Z,88.00
2023-02-15T01:06:23.315Z,99.90
2023-02-15T01:08:50.380Z,99.90
2023-02-15T01:11:24.485Z,99.90
2023-02-15T01:13:57.399Z,99.90
2023-02-15T01:16:27.184Z,99.90
2023-02-15T01:18:55.751Z,99.90
2023-02-15T01:21:26.060Z,99.90
2023-02-15T01:23:53.274Z,99.90
2023-02-15T01:26:20.294Z,99.90
2023-02-15T01:28:47.827Z,99.90
2023-02-15T01:31:18.250Z,99.90
2023-02-15T05:38:38.644Z,99.90
2023-02-15T05:41:07.310Z,99.90
2023-02-15T05:43:35.058Z,99.90
2023-02-15T06:25:36.627Z,99.90
2023-02-15T06:28:04.734Z,99.90
2023-02-15T06:32:59.698Z,99.90
2023-02-15T06:37:54.100Z,99.90
2023-02-15T06:47:43.623Z,99.90
2023-02-15T09:16:50.844Z,99.90
